sensor_id;sensor_type;location;lat;lon;timestamp;P1;durP1;ratioP1;P2;durP2;ratioP2
5052;SDS011;2545;50.892;5.740;2023-06-19T00:01:39;6.40;;;5.30;;
5052;SDS011;2545;50.892;5.740;2023-06-19T00:04:04;8.37;;;6.00;;
5052;SDS011;2545;50.892;5.740;2023-06-19T00:06:30;7.90;;;6.23;;
5052;SDS011;2545;50.892;5.740;2023-06-19T00:08:55;7.80;;;5.13;;
5052;SDS011;2545;50.892;5.740;2023-06-19T00:11:20;10.33;;;5.80;;
5052;SDS011;2545;50.892;5.740;2023-06-19T00:13:46;7.73;;;5.37;;
5052;SDS011;2545;50.892;5.740;2023-06-19T00:16:11;8.00;;;6.13;;
5052;SDS011;2545;50.892;5.740;2023-06-19T00:18:36;7.47;;;5.50;;
5052;SDS011;2545;50.892;5.740;2023-06-19T00:21:05;7.10;;;6.33;;
5052;SDS011;2545;50.892;5.740;2023-06-19T00:23:32;7.13;;;5.37;;
5052;SDS011;2545;50.892;5.740;2023-06-19T00:25:57;6.97;;;5.50;;
5052;SDS011;2545;50.892;5.740;2023-06-19T00:28:25;6.23;;;5.43;;
5052;SDS011;2545;50.892;5.740;2023-06-19T00:30:51;7.37;;;5.70;;
5052;SDS011;2545;50.892;5.740;2023-06-19T00:33:16;7.53;;;5.60;;
5052;SDS011;2545;50.892;5.740;2023-06-19T00:35:41;12.33;;;5.80;;
5052;SDS011;2545;50.892;5.740;2023-06-19T00:38:07;9.07;;;6.07;;
5052;SDS011;2545;50.892;5.740;2023-06-19T00:40:33;7.20;;;5.93;;
5052;SDS011;2545;50.892;5.740;2023-06-19T00:42:58;6.40;;;5.47;;
5052;SDS011;2545;50.892;5.740;2023-06-19T00:45:24;9.17;;;6.40;;
5052;SDS011;2545;50.892;5.740;2023-06-19T00:47:51;6.60;;;5.70;;
5052;SDS011;2545;50.892;5.740;2023-06-19T00:50:17;7.00;;;5.23;;
5052;SDS011;2545;50.892;5.740;2023-06-19T00:52:43;8.87;;;5.87;;
5052;SDS011;2545;50.892;5.740;2023-06-19T00:55:09;8.27;;;6.13;;
5052;SDS011;2545;50.892;5.740;2023-06-19T00:57:34;7.80;;;5.83;;
5052;SDS011;2545;50.892;5.740;2023-06-19T01:00:01;6.00;;;5.07;;
5052;SDS011;2545;50.892;5.740;2023-06-19T01:02:29;13.13;;;6.23;;
5052;SDS011;2545;50.892;5.740;2023-06-19T01:04:56;7.30;;;5.40;;
5052;SDS011;2545;50.892;5.740;2023-06-19T01:07:27;7.17;;;4.83;;
5052;SDS011;2545;50.892;5.740;2023-06-19T01:10:09;6.93;;;5.40;;
5052;SDS011;2545;50.892;5.740;2023-06-19T01:12:40;5.10;;;4.43;;
5052;SDS011;2545;50.892;5.740;2023-06-19T01:15:13;6.63;;;4.43;;
5052;SDS011;2545;50.892;5.740;2023-06-19T01:17:39;9.53;;;5.30;;
5052;SDS011;2545;50.892;5.740;2023-06-19T01:20:05;6.10;;;4.30;;
5052;SDS011;2545;50.892;5.740;2023-06-19T01:22:35;6.13;;;4.20;;
5052;SDS011;2545;50.892;5.740;2023-06-19T01:25:01;6.13;;;4.33;;
5052;SDS011;2545;50.892;5.740;2023-06-19T01:27:27;5.83;;;3.93;;
5052;SDS011;2545;50.892;5.740;2023-06-19T01:29:56;7.67;;;5.60;;
5052;SDS011;2545;50.892;5.740;2023-06-19T01:32:56;4.80;;;4.20;;
5052;SDS011;2545;50.892;5.740;2023-06-19T01:35:28;5.83;;;4.53;;
5052;SDS011;2545;50.892;5.740;2023-06-19T01:37:55;5.67;;;4.37;;
5052;SDS011;2545;50.892;5.740;2023-06-19T01:40:21;7.00;;;4.97;;
5052;SDS011;2545;50.892;5.740;2023-06-19T01:42:51;5.80;;;4.40;;
5052;SDS011;2545;50.892;5.740;2023-06-19T01:45:17;6.10;;;4.00;;
5052;SDS011;2545;50.892;5.740;2023-06-19T01:47:43;7.10;;;4.30;;
5052;SDS011;2545;50.892;5.740;2023-06-19T01:50:08;5.87;;;4.60;;
5052;SDS011;2545;50.892;5.740;2023-06-19T01:52:36;5.43;;;4.10;;
5052;SDS011;2545;50.892;5.740;2023-06-19T01:55:02;5.40;;;4.10;;
5052;SDS011;2545;50.892;5.740;2023-06-19T01:57:28;7.20;;;4.60;;
5052;SDS011;2545;50.892;5.740;2023-06-19T01:59:53;11.83;;;5.53;;
5052;SDS011;2545;50.892;5.740;2023-06-19T02:02:18;7.10;;;4.80;;
5052;SDS011;2545;50.892;5.740;2023-06-19T02:04:44;5.17;;;4.13;;
5052;SDS011;2545;50.892;5.740;2023-06-19T02:07:09;7.50;;;4.13;;
5052;SDS011;2545;50.892;5.740;2023-06-19T02:09:35;6.30;;;4.50;;
5052;SDS011;2545;50.892;5.740;2023-06-19T02:12:02;7.60;;;4.20;;
5052;SDS011;2545;50.892;5.740;2023-06-19T02:14:28;6.97;;;4.70;;
5052;SDS011;2545;50.892;5.740;2023-06-19T02:16:53;8.90;;;4.50;;
5052;SDS011;2545;50.892;5.740;2023-06-19T02:19:18;5.13;;;3.90;;
5052;SDS011;2545;50.892;5.740;2023-06-19T02:21:44;4.80;;;3.47;;
5052;SDS011;2545;50.892;5.740;2023-06-19T02:24:09;10.37;;;4.40;;
5052;SDS011;2545;50.892;5.740;2023-06-19T02:26:34;7.20;;;4.10;;
5052;SDS011;2545;50.892;5.740;2023-06-19T02:29:00;4.40;;;3.40;;
5052;SDS011;2545;50.892;5.740;2023-06-19T02:31:25;7.00;;;3.97;;
5052;SDS011;2545;50.892;5.740;2023-06-19T02:33:50;5.27;;;4.00;;
5052;SDS011;2545;50.892;5.740;2023-06-19T02:36:16;5.03;;;3.90;;
5052;SDS011;2545;50.892;5.740;2023-06-19T02:38:44;6.50;;;4.40;;
5052;SDS011;2545;50.892;5.740;2023-06-19T02:41:13;5.83;;;3.77;;
5052;SDS011;2545;50.892;5.740;2023-06-19T02:43:39;7.13;;;4.77;;
5052;SDS011;2545;50.892;5.740;2023-06-19T02:46:05;6.00;;;4.13;;
5052;SDS011;2545;50.892;5.740;2023-06-19T02:48:31;4.43;;;3.40;;
5052;SDS011;2545;50.892;5.740;2023-06-19T02:50:56;7.50;;;4.00;;
5052;SDS011;2545;50.892;5.740;2023-06-19T02:53:21;9.40;;;3.90;;
5052;SDS011;2545;50.892;5.740;2023-06-19T02:55:47;13.43;;;3.97;;
5052;SDS011;2545;50.892;5.740;2023-06-19T02:58:12;10.03;;;3.87;;
5052;SDS011;2545;50.892;5.740;2023-06-19T03:00:37;6.27;;;3.93;;
5052;SDS011;2545;50.892;5.740;2023-06-19T03:03:02;6.43;;;3.47;;
5052;SDS011;2545;50.892;5.740;2023-06-19T03:05:28;7.53;;;4.47;;
5052;SDS011;2545;50.892;5.740;2023-06-19T03:07:53;5.70;;;4.40;;
5052;SDS011;2545;50.892;5.740;2023-06-19T03:10:18;4.90;;;3.80;;
5052;SDS011;2545;50.892;5.740;2023-06-19T03:12:44;5.67;;;3.90;;
5052;SDS011;2545;50.892;5.740;2023-06-19T03:15:09;5.30;;;3.47;;
5052;SDS011;2545;50.892;5.740;2023-06-19T03:17:35;5.93;;;3.30;;
5052;SDS011;2545;50.892;5.740;2023-06-19T03:20:00;6.80;;;3.90;;
5052;SDS011;2545;50.892;5.740;2023-06-19T03:22:26;5.53;;;3.50;;
5052;SDS011;2545;50.892;5.740;2023-06-19T03:24:51;8.27;;;4.00;;
5052;SDS011;2545;50.892;5.740;2023-06-19T03:27:17;4.60;;;3.40;;
5052;SDS011;2545;50.892;5.740;2023-06-19T03:29:42;6.27;;;3.80;;
5052;SDS011;2545;50.892;5.740;2023-06-19T03:32:07;6.03;;;4.00;;
5052;SDS011;2545;50.892;5.740;2023-06-19T03:34:33;7.60;;;4.17;;
5052;SDS011;2545;50.892;5.740;2023-06-19T03:36:58;6.43;;;4.20;;
5052;SDS011;2545;50.892;5.740;2023-06-19T03:39:24;5.07;;;3.87;;
5052;SDS011;2545;50.892;5.740;2023-06-19T03:41:49;4.60;;;3.60;;
5052;SDS011;2545;50.892;5.740;2023-06-19T03:44:15;8.03;;;4.20;;
5052;SDS011;2545;50.892;5.740;2023-06-19T03:46:40;7.60;;;3.87;;
5052;SDS011;2545;50.892;5.740;2023-06-19T03:49:05;5.60;;;3.83;;
5052;SDS011;2545;50.892;5.740;2023-06-19T03:51:31;5.90;;;3.80;;
5052;SDS011;2545;50.892;5.740;2023-06-19T03:53:57;6.53;;;3.50;;
5052;SDS011;2545;50.892;5.740;2023-06-19T03:56:23;10.00;;;3.90;;
5052;SDS011;2545;50.892;5.740;2023-06-19T03:58:48;6.80;;;4.37;;
5052;SDS011;2545;50.892;5.740;2023-06-19T04:01:13;7.40;;;3.47;;
5052;SDS011;2545;50.892;5.740;2023-06-19T04:03:39;3.80;;;2.90;;
5052;SDS011;2545;50.892;5.740;2023-06-19T04:06:04;4.53;;;3.30;;
5052;SDS011;2545;50.892;5.740;2023-06-19T04:08:29;3.17;;;2.87;;
5052;SDS011;2545;50.892;5.740;2023-06-19T04:10:55;5.27;;;3.53;;
5052;SDS011;2545;50.892;5.740;2023-06-19T04:13:20;4.83;;;3.30;;
5052;SDS011;2545;50.892;5.740;2023-06-19T04:15:46;3.83;;;3.13;;
5052;SDS011;2545;50.892;5.740;2023-06-19T04:18:11;7.10;;;3.90;;
5052;SDS011;2545;50.892;5.740;2023-06-19T04:20:37;3.83;;;3.23;;
5052;SDS011;2545;50.892;5.740;2023-06-19T04:23:02;10.10;;;4.00;;
5052;SDS011;2545;50.892;5.740;2023-06-19T04:25:27;7.13;;;4.20;;
5052;SDS011;2545;50.892;5.740;2023-06-19T04:27:53;12.47;;;4.03;;
5052;SDS011;2545;50.892;5.740;2023-06-19T04:30:18;7.60;;;3.97;;
5052;SDS011;2545;50.892;5.740;2023-06-19T04:32:46;14.43;;;4.47;;
5052;SDS011;2545;50.892;5.740;2023-06-19T04:35:11;13.00;;;3.97;;
5052;SDS011;2545;50.892;5.740;2023-06-19T04:37:37;7.33;;;3.57;;
5052;SDS011;2545;50.892;5.740;2023-06-19T04:40:02;5.13;;;3.80;;
5052;SDS011;2545;50.892;5.740;2023-06-19T04:42:28;5.63;;;3.47;;
5052;SDS011;2545;50.892;5.740;2023-06-19T04:44:54;4.87;;;3.90;;
5052;SDS011;2545;50.892;5.740;2023-06-19T04:47:22;6.47;;;3.70;;
5052;SDS011;2545;50.892;5.740;2023-06-19T04:49:48;7.53;;;3.70;;
5052;SDS011;2545;50.892;5.740;2023-06-19T04:52:13;4.50;;;3.40;;
5052;SDS011;2545;50.892;5.740;2023-06-19T04:54:39;7.47;;;4.20;;
5052;SDS011;2545;50.892;5.740;2023-06-19T04:57:04;5.30;;;3.50;;
5052;SDS011;2545;50.892;5.740;2023-06-19T04:59:30;14.97;;;3.13;;
5052;SDS011;2545;50.892;5.740;2023-06-19T05:01:56;4.23;;;3.40;;
5052;SDS011;2545;50.892;5.740;2023-06-19T05:04:21;5.03;;;3.63;;
5052;SDS011;2545;50.892;5.740;2023-06-19T05:06:47;4.33;;;3.60;;
5052;SDS011;2545;50.892;5.740;2023-06-19T05:09:13;5.13;;;4.10;;
5052;SDS011;2545;50.892;5.740;2023-06-19T05:11:38;8.40;;;4.40;;
5052;SDS011;2545;50.892;5.740;2023-06-19T05:14:04;6.10;;;4.90;;
5052;SDS011;2545;50.892;5.740;2023-06-19T05:16:29;5.97;;;4.03;;
5052;SDS011;2545;50.892;5.740;2023-06-19T05:18:54;7.30;;;4.07;;
5052;SDS011;2545;50.892;5.740;2023-06-19T05:21:20;7.00;;;4.40;;
5052;SDS011;2545;50.892;5.740;2023-06-19T05:23:45;7.27;;;4.73;;
5052;SDS011;2545;50.892;5.740;2023-06-19T05:26:15;8.63;;;4.57;;
5052;SDS011;2545;50.892;5.740;2023-06-19T05:28:40;5.53;;;4.00;;
5052;SDS011;2545;50.892;5.740;2023-06-19T05:31:06;8.83;;;4.97;;
5052;SDS011;2545;50.892;5.740;2023-06-19T05:33:31;6.43;;;4.40;;
5052;SDS011;2545;50.892;5.740;2023-06-19T05:35:56;9.43;;;5.13;;
5052;SDS011;2545;50.892;5.740;2023-06-19T05:38:22;6.67;;;4.70;;
5052;SDS011;2545;50.892;5.740;2023-06-19T05:40:48;8.93;;;4.40;;
5052;SDS011;2545;50.892;5.740;2023-06-19T05:43:15;19.73;;;5.33;;
5052;SDS011;2545;50.892;5.740;2023-06-19T05:45:40;10.20;;;5.13;;
5052;SDS011;2545;50.892;5.740;2023-06-19T05:48:05;8.87;;;5.17;;
5052;SDS011;2545;50.892;5.740;2023-06-19T05:50:31;10.80;;;5.10;;
5052;SDS011;2545;50.892;5.740;2023-06-19T05:52:56;6.60;;;3.90;;
5052;SDS011;2545;50.892;5.740;2023-06-19T05:55:21;11.73;;;4.90;;
5052;SDS011;2545;50.892;5.740;2023-06-19T05:57:47;6.40;;;4.70;;
5052;SDS011;2545;50.892;5.740;2023-06-19T06:00:12;9.07;;;5.00;;
5052;SDS011;2545;50.892;5.740;2023-06-19T06:02:41;12.13;;;4.83;;
5052;SDS011;2545;50.892;5.740;2023-06-19T06:05:06;11.00;;;4.17;;
5052;SDS011;2545;50.892;5.740;2023-06-19T06:07:33;7.30;;;4.00;;
5052;SDS011;2545;50.892;5.740;2023-06-19T06:09:59;6.20;;;4.70;;
5052;SDS011;2545;50.892;5.740;2023-06-19T06:12:24;7.70;;;4.03;;
5052;SDS011;2545;50.892;5.740;2023-06-19T06:14:49;8.10;;;4.80;;
5052;SDS011;2545;50.892;5.740;2023-06-19T06:17:15;16.73;;;5.70;;
5052;SDS011;2545;50.892;5.740;2023-06-19T06:19:40;10.10;;;4.47;;
5052;SDS011;2545;50.892;5.740;2023-06-19T06:22:05;8.33;;;4.93;;
5052;SDS011;2545;50.892;5.740;2023-06-19T06:24:31;9.03;;;6.07;;
5052;SDS011;2545;50.892;5.740;2023-06-19T06:26:56;21.83;;;6.37;;
5052;SDS011;2545;50.892;5.740;2023-06-19T06:29:22;12.43;;;5.13;;
5052;SDS011;2545;50.892;5.740;2023-06-19T06:31:47;12.83;;;5.47;;
5052;SDS011;2545;50.892;5.740;2023-06-19T06:34:13;10.30;;;4.93;;
5052;SDS011;2545;50.892;5.740;2023-06-19T06:36:38;30.27;;;5.70;;
5052;SDS011;2545;50.892;5.740;2023-06-19T06:39:04;8.03;;;4.80;;
5052;SDS011;2545;50.892;5.740;2023-06-19T06:41:29;10.43;;;5.33;;
5052;SDS011;2545;50.892;5.740;2023-06-19T06:43:55;9.80;;;5.40;;
5052;SDS011;2545;50.892;5.740;2023-06-19T06:46:20;5.83;;;4.30;;
5052;SDS011;2545;50.892;5.740;2023-06-19T06:48:46;13.90;;;5.23;;
5052;SDS011;2545;50.892;5.740;2023-06-19T06:51:11;8.67;;;4.63;;
5052;SDS011;2545;50.892;5.740;2023-06-19T06:53:37;11.40;;;4.80;;
5052;SDS011;2545;50.892;5.740;2023-06-19T06:56:02;6.73;;;4.60;;
5052;SDS011;2545;50.892;5.740;2023-06-19T06:58:28;10.60;;;5.57;;
5052;SDS011;2545;50.892;5.740;2023-06-19T07:00:53;9.40;;;4.93;;
5052;SDS011;2545;50.892;5.740;2023-06-19T07:03:19;6.33;;;4.87;;
5052;SDS011;2545;50.892;5.740;2023-06-19T07:05:44;9.30;;;4.97;;
5052;SDS011;2545;50.892;5.740;2023-06-19T07:08:10;7.30;;;4.17;;
5052;SDS011;2545;50.892;5.740;2023-06-19T07:10:36;9.10;;;4.93;;
5052;SDS011;2545;50.892;5.740;2023-06-19T07:13:01;12.87;;;4.63;;
5052;SDS011;2545;50.892;5.740;2023-06-19T07:15:26;9.90;;;4.60;;
5052;SDS011;2545;50.892;5.740;2023-06-19T07:17:52;17.23;;;4.33;;
5052;SDS011;2545;50.892;5.740;2023-06-19T07:20:17;9.60;;;4.10;;
5052;SDS011;2545;50.892;5.740;2023-06-19T07:22:43;6.93;;;4.60;;
5052;SDS011;2545;50.892;5.740;2023-06-19T07:25:09;9.30;;;4.30;;
5052;SDS011;2545;50.892;5.740;2023-06-19T07:27:36;6.50;;;4.20;;
5052;SDS011;2545;50.892;5.740;2023-06-19T07:30:01;7.43;;;4.93;;
5052;SDS011;2545;50.892;5.740;2023-06-19T07:32:27;11.57;;;4.23;;
5052;SDS011;2545;50.892;5.740;2023-06-19T07:34:52;8.10;;;5.37;;
5052;SDS011;2545;50.892;5.740;2023-06-19T07:37:18;5.13;;;4.20;;
5052;SDS011;2545;50.892;5.740;2023-06-19T07:39:44;11.23;;;4.40;;
5052;SDS011;2545;50.892;5.740;2023-06-19T07:42:10;6.17;;;4.13;;
5052;SDS011;2545;50.892;5.740;2023-06-19T07:44:35;7.77;;;4.70;;
5052;SDS011;2545;50.892;5.740;2023-06-19T07:47:01;4.97;;;3.83;;
5052;SDS011;2545;50.892;5.740;2023-06-19T07:49:26;10.77;;;4.77;;
5052;SDS011;2545;50.892;5.740;2023-06-19T07:51:52;10.03;;;5.30;;
5052;SDS011;2545;50.892;5.740;2023-06-19T07:54:17;8.93;;;4.63;;
5052;SDS011;2545;50.892;5.740;2023-06-19T07:56:43;7.17;;;4.40;;
5052;SDS011;2545;50.892;5.740;2023-06-19T07:59:08;9.33;;;4.40;;
5052;SDS011;2545;50.892;5.740;2023-06-19T08:01:33;6.40;;;5.37;;
5052;SDS011;2545;50.892;5.740;2023-06-19T08:03:58;11.07;;;4.13;;
5052;SDS011;2545;50.892;5.740;2023-06-19T08:06:24;4.23;;;3.83;;
5052;SDS011;2545;50.892;5.740;2023-06-19T08:08:49;6.70;;;4.60;;
5052;SDS011;2545;50.892;5.740;2023-06-19T08:11:15;6.13;;;3.70;;
5052;SDS011;2545;50.892;5.740;2023-06-19T08:13:40;7.73;;;3.77;;
5052;SDS011;2545;50.892;5.740;2023-06-19T08:16:05;10.47;;;4.23;;
5052;SDS011;2545;50.892;5.740;2023-06-19T08:18:31;9.27;;;4.53;;
5052;SDS011;2545;50.892;5.740;2023-06-19T08:20:57;11.50;;;5.00;;
5052;SDS011;2545;50.892;5.740;2023-06-19T08:23:22;9.00;;;4.40;;
5052;SDS011;2545;50.892;5.740;2023-06-19T08:25:47;5.40;;;4.20;;
5052;SDS011;2545;50.892;5.740;2023-06-19T08:28:12;10.70;;;4.77;;
5052;SDS011;2545;50.892;5.740;2023-06-19T08:30:38;8.00;;;4.37;;
5052;SDS011;2545;50.892;5.740;2023-06-19T08:33:03;7.97;;;4.40;;
5052;SDS011;2545;50.892;5.740;2023-06-19T08:35:28;5.27;;;4.37;;
5052;SDS011;2545;50.892;5.740;2023-06-19T08:37:54;5.50;;;3.80;;
5052;SDS011;2545;50.892;5.740;2023-06-19T08:40:19;5.33;;;4.30;;
5052;SDS011;2545;50.892;5.740;2023-06-19T08:42:45;13.20;;;4.10;;
5052;SDS011;2545;50.892;5.740;2023-06-19T08:45:10;9.70;;;3.90;;
5052;SDS011;2545;50.892;5.740;2023-06-19T08:47:35;12.40;;;5.00;;
5052;SDS011;2545;50.892;5.740;2023-06-19T08:50:01;15.23;;;4.60;;
5052;SDS011;2545;50.892;5.740;2023-06-19T08:52:26;6.30;;;4.10;;
5052;SDS011;2545;50.892;5.740;2023-06-19T08:54:52;8.03;;;4.07;;
5052;SDS011;2545;50.892;5.740;2023-06-19T08:57:17;9.13;;;4.30;;
5052;SDS011;2545;50.892;5.740;2023-06-19T09:00:00;6.33;;;3.50;;
5052;SDS011;2545;50.892;5.740;2023-06-19T09:02:35;10.33;;;4.60;;
5052;SDS011;2545;50.892;5.740;2023-06-19T09:05:12;7.13;;;4.23;;
5052;SDS011;2545;50.892;5.740;2023-06-19T09:07:39;13.07;;;4.93;;
5052;SDS011;2545;50.892;5.740;2023-06-19T09:10:17;6.97;;;4.43;;
5052;SDS011;2545;50.892;5.740;2023-06-19T09:12:43;10.60;;;4.13;;
5052;SDS011;2545;50.892;5.740;2023-06-19T09:15:13;7.40;;;4.67;;
5052;SDS011;2545;50.892;5.740;2023-06-19T09:17:39;11.73;;;5.50;;
5052;SDS011;2545;50.892;5.740;2023-06-19T09:20:05;7.23;;;4.43;;
5052;SDS011;2545;50.892;5.740;2023-06-19T09:22:32;11.00;;;4.67;;
5052;SDS011;2545;50.892;5.740;2023-06-19T09:25:01;7.07;;;4.20;;
5052;SDS011;2545;50.892;5.740;2023-06-19T09:27:31;8.70;;;4.53;;
5052;SDS011;2545;50.892;5.740;2023-06-19T09:29:58;9.97;;;4.37;;
5052;SDS011;2545;50.892;5.740;2023-06-19T09:32:27;8.97;;;4.30;;
5052;SDS011;2545;50.892;5.740;2023-06-19T09:34:56;5.40;;;4.00;;
5052;SDS011;2545;50.892;5.740;2023-06-19T09:37:27;7.77;;;4.37;;
5052;SDS011;2545;50.892;5.740;2023-06-19T09:39:55;10.17;;;4.60;;
5052;SDS011;2545;50.892;5.740;2023-06-19T09:42:32;8.30;;;5.07;;
5052;SDS011;2545;50.892;5.740;2023-06-19T09:47:39;15.07;;;4.63;;
5052;SDS011;2545;50.892;5.740;2023-06-19T09:50:09;9.47;;;4.53;;
5052;SDS011;2545;50.892;5.740;2023-06-19T09:52:37;7.70;;;4.90;;
5052;SDS011;2545;50.892;5.740;2023-06-19T09:55:03;8.43;;;5.33;;
5052;SDS011;2545;50.892;5.740;2023-06-19T09:57:32;9.73;;;5.47;;
5052;SDS011;2545;50.892;5.740;2023-06-19T09:59:58;10.90;;;5.60;;
5052;SDS011;2545;50.892;5.740;2023-06-19T10:02:33;9.53;;;5.70;;
5052;SDS011;2545;50.892;5.740;2023-06-19T10:05:00;14.20;;;5.80;;
5052;SDS011;2545;50.892;5.740;2023-06-19T10:07:26;14.47;;;5.53;;
5052;SDS011;2545;50.892;5.740;2023-06-19T10:10:01;7.13;;;5.20;;
5052;SDS011;2545;50.892;5.740;2023-06-19T10:12:38;8.20;;;4.60;;
5052;SDS011;2545;50.892;5.740;2023-06-19T10:17:45;11.57;;;5.20;;
5052;SDS011;2545;50.892;5.740;2023-06-19T10:20:21;8.10;;;5.20;;
5052;SDS011;2545;50.892;5.740;2023-06-19T10:23:02;10.50;;;5.50;;
5052;SDS011;2545;50.892;5.740;2023-06-19T10:25:32;8.20;;;5.27;;
5052;SDS011;2545;50.892;5.740;2023-06-19T10:28:01;11.37;;;5.20;;
5052;SDS011;2545;50.892;5.740;2023-06-19T10:30:28;10.33;;;5.67;;
5052;SDS011;2545;50.892;5.740;2023-06-19T10:32:54;10.43;;;5.20;;
5052;SDS011;2545;50.892;5.740;2023-06-19T10:35:20;5.53;;;4.63;;
5052;SDS011;2545;50.892;5.740;2023-06-19T10:37:46;11.60;;;6.23;;
5052;SDS011;2545;50.892;5.740;2023-06-19T10:40:12;10.13;;;5.60;;
5052;SDS011;2545;50.892;5.740;2023-06-19T10:42:38;9.90;;;5.23;;
5052;SDS011;2545;50.892;5.740;2023-06-19T10:45:05;11.03;;;4.93;;
5052;SDS011;2545;50.892;5.740;2023-06-19T10:47:32;9.63;;;5.30;;
5052;SDS011;2545;50.892;5.740;2023-06-19T10:49:58;7.57;;;4.77;;
5052;SDS011;2545;50.892;5.740;2023-06-19T10:52:23;13.73;;;5.27;;
5052;SDS011;2545;50.892;5.740;2023-06-19T10:54:55;10.50;;;5.80;;
5052;SDS011;2545;50.892;5.740;2023-06-19T10:57:28;12.97;;;5.00;;
5052;SDS011;2545;50.892;5.740;2023-06-19T10:59:56;11.90;;;5.00;;
5052;SDS011;2545;50.892;5.740;2023-06-19T11:02:23;8.37;;;5.00;;
5052;SDS011;2545;50.892;5.740;2023-06-19T11:04:51;10.17;;;5.60;;
5052;SDS011;2545;50.892;5.740;2023-06-19T11:07:18;6.77;;;4.63;;
5052;SDS011;2545;50.892;5.740;2023-06-19T11:09:43;8.03;;;4.90;;
5052;SDS011;2545;50.892;5.740;2023-06-19T11:12:09;10.60;;;4.47;;
5052;SDS011;2545;50.892;5.740;2023-06-19T11:14:35;14.80;;;4.87;;
5052;SDS011;2545;50.892;5.740;2023-06-19T11:17:04;8.87;;;5.40;;
5052;SDS011;2545;50.892;5.740;2023-06-19T11:19:30;10.53;;;5.57;;
5052;SDS011;2545;50.892;5.740;2023-06-19T11:21:57;8.13;;;4.90;;
5052;SDS011;2545;50.892;5.740;2023-06-19T11:24:22;6.57;;;4.60;;
5052;SDS011;2545;50.892;5.740;2023-06-19T11:26:49;8.83;;;5.27;;
5052;SDS011;2545;50.892;5.740;2023-06-19T11:31:45;9.63;;;5.57;;
5052;SDS011;2545;50.892;5.740;2023-06-19T11:34:12;7.67;;;4.83;;
5052;SDS011;2545;50.892;5.740;2023-06-19T11:36:38;5.17;;;4.10;;
5052;SDS011;2545;50.892;5.740;2023-06-19T11:39:04;10.30;;;6.10;;
5052;SDS011;2545;50.892;5.740;2023-06-19T11:41:34;8.80;;;5.10;;
5052;SDS011;2545;50.892;5.740;2023-06-19T11:44:02;8.37;;;4.67;;
5052;SDS011;2545;50.892;5.740;2023-06-19T11:46:29;12.90;;;5.37;;
5052;SDS011;2545;50.892;5.740;2023-06-19T11:48:56;6.40;;;5.07;;
5052;SDS011;2545;50.892;5.740;2023-06-19T11:51:32;13.23;;;5.40;;
5052;SDS011;2545;50.892;5.740;2023-06-19T11:53:57;7.80;;;4.53;;
5052;SDS011;2545;50.892;5.740;2023-06-19T11:56:22;7.60;;;5.33;;
5052;SDS011;2545;50.892;5.740;2023-06-19T11:58:48;10.23;;;4.97;;
5052;SDS011;2545;50.892;5.740;2023-06-19T12:01:13;7.47;;;4.80;;
5052;SDS011;2545;50.892;5.740;2023-06-19T12:03:38;6.00;;;5.00;;
5052;SDS011;2545;50.892;5.740;2023-06-19T12:06:04;6.60;;;5.10;;
5052;SDS011;2545;50.892;5.740;2023-06-19T12:08:29;7.83;;;4.70;;
5052;SDS011;2545;50.892;5.740;2023-06-19T12:10:55;8.10;;;5.07;;
5052;SDS011;2545;50.892;5.740;2023-06-19T12:13:20;8.33;;;4.77;;
5052;SDS011;2545;50.892;5.740;2023-06-19T12:15:45;8.83;;;4.90;;
5052;SDS011;2545;50.892;5.740;2023-06-19T12:18:10;13.53;;;4.67;;
5052;SDS011;2545;50.892;5.740;2023-06-19T12:20:37;7.78;;;4.22;;
5052;SDS011;2545;50.892;5.740;2023-06-19T12:23:02;4.40;;;4.00;;
5052;SDS011;2545;50.892;5.740;2023-06-19T12:25:28;8.80;;;4.70;;
5052;SDS011;2545;50.892;5.740;2023-06-19T12:27:53;4.18;;;3.45;;
5052;SDS011;2545;50.892;5.740;2023-06-19T12:30:18;5.22;;;4.05;;
5052;SDS011;2545;50.892;5.740;2023-06-19T12:32:44;4.20;;;3.42;;
5052;SDS011;2545;50.892;5.740;2023-06-19T12:35:09;8.63;;;3.88;;
5052;SDS011;2545;50.892;5.740;2023-06-19T12:37:34;6.68;;;4.20;;
5052;SDS011;2545;50.892;5.740;2023-06-19T12:40:00;7.55;;;4.43;;
5052;SDS011;2545;50.892;5.740;2023-06-19T12:42:25;6.55;;;4.65;;
5052;SDS011;2545;50.892;5.740;2023-06-19T12:44:50;12.90;;;4.18;;
5052;SDS011;2545;50.892;5.740;2023-06-19T12:47:16;8.25;;;4.05;;
5052;SDS011;2545;50.892;5.740;2023-06-19T12:49:43;6.07;;;4.57;;
5052;SDS011;2545;50.892;5.740;2023-06-19T12:52:08;5.85;;;4.20;;
5052;SDS011;2545;50.892;5.740;2023-06-19T12:54:34;8.40;;;4.45;;
5052;SDS011;2545;50.892;5.740;2023-06-19T12:57:00;4.25;;;3.65;;
5052;SDS011;2545;50.892;5.740;2023-06-19T12:59:25;6.78;;;4.07;;
5052;SDS011;2545;50.892;5.740;2023-06-19T13:01:50;5.40;;;4.43;;
5052;SDS011;2545;50.892;5.740;2023-06-19T13:04:16;8.90;;;4.13;;
5052;SDS011;2545;50.892;5.740;2023-06-19T13:06:41;4.65;;;3.90;;
5052;SDS011;2545;50.892;5.740;2023-06-19T13:09:06;4.53;;;3.85;;
5052;SDS011;2545;50.892;5.740;2023-06-19T13:11:32;7.97;;;3.70;;
5052;SDS011;2545;50.892;5.740;2023-06-19T13:13:59;6.40;;;4.27;;
5052;SDS011;2545;50.892;5.740;2023-06-19T13:16:25;5.97;;;4.10;;
5052;SDS011;2545;50.892;5.740;2023-06-19T13:18:50;5.93;;;4.10;;
5052;SDS011;2545;50.892;5.740;2023-06-19T13:21:16;12.80;;;4.10;;
5052;SDS011;2545;50.892;5.740;2023-06-19T13:23:42;5.70;;;4.80;;
5052;SDS011;2545;50.892;5.740;2023-06-19T13:26:07;11.50;;;4.50;;
5052;SDS011;2545;50.892;5.740;2023-06-19T13:28:32;7.17;;;4.30;;
5052;SDS011;2545;50.892;5.740;2023-06-19T13:30:58;10.30;;;3.70;;
5052;SDS011;2545;50.892;5.740;2023-06-19T13:33:24;6.43;;;3.63;;
5052;SDS011;2545;50.892;5.740;2023-06-19T13:35:50;5.97;;;3.97;;
5052;SDS011;2545;50.892;5.740;2023-06-19T13:38:15;4.17;;;3.47;;
5052;SDS011;2545;50.892;5.740;2023-06-19T13:40:42;4.50;;;3.83;;
5052;SDS011;2545;50.892;5.740;2023-06-19T13:43:07;6.90;;;4.17;;
5052;SDS011;2545;50.892;5.740;2023-06-19T13:45:33;6.37;;;4.10;;
5052;SDS011;2545;50.892;5.740;2023-06-19T13:47:59;5.00;;;4.10;;
5052;SDS011;2545;50.892;5.740;2023-06-19T13:50:25;7.10;;;4.03;;
5052;SDS011;2545;50.892;5.740;2023-06-19T13:52:51;17.40;;;4.33;;
5052;SDS011;2545;50.892;5.740;2023-06-19T13:55:16;8.60;;;3.20;;
5052;SDS011;2545;50.892;5.740;2023-06-19T13:57:43;9.63;;;3.53;;
5052;SDS011;2545;50.892;5.740;2023-06-19T14:00:09;3.30;;;3.00;;
5052;SDS011;2545;50.892;5.740;2023-06-19T14:02:38;7.13;;;3.15;;
5052;SDS011;2545;50.892;5.740;2023-06-19T14:05:05;13.70;;;3.90;;
5052;SDS011;2545;50.892;5.740;2023-06-19T14:07:31;5.47;;;3.25;;
5052;SDS011;2545;50.892;5.740;2023-06-19T14:09:57;5.55;;;3.83;;
5052;SDS011;2545;50.892;5.740;2023-06-19T14:12:22;5.78;;;3.67;;
5052;SDS011;2545;50.892;5.740;2023-06-19T14:14:47;14.23;;;3.60;;
5052;SDS011;2545;50.892;5.740;2023-06-19T14:17:13;4.80;;;3.88;;
5052;SDS011;2545;50.892;5.740;2023-06-19T14:19:39;13.70;;;3.67;;
5052;SDS011;2545;50.892;5.740;2023-06-19T14:22:04;5.15;;;3.58;;
5052;SDS011;2545;50.892;5.740;2023-06-19T14:24:29;4.00;;;3.45;;
5052;SDS011;2545;50.892;5.740;2023-06-19T14:26:55;3.50;;;3.20;;
5052;SDS011;2545;50.892;5.740;2023-06-19T14:29:20;3.45;;;3.15;;
5052;SDS011;2545;50.892;5.740;2023-06-19T14:31:45;3.45;;;3.15;;
5052;SDS011;2545;50.892;5.740;2023-06-19T14:34:11;4.88;;;3.00;;
5052;SDS011;2545;50.892;5.740;2023-06-19T14:36:37;3.45;;;3.00;;
5052;SDS011;2545;50.892;5.740;2023-06-19T14:39:03;3.60;;;3.15;;
5052;SDS011;2545;50.892;5.740;2023-06-19T14:41:28;11.20;;;3.58;;
5052;SDS011;2545;50.892;5.740;2023-06-19T14:43:54;3.78;;;3.05;;
5052;SDS011;2545;50.892;5.740;2023-06-19T14:46:19;3.35;;;2.60;;
5052;SDS011;2545;50.892;5.740;2023-06-19T14:48:44;3.88;;;3.47;;
5052;SDS011;2545;50.892;5.740;2023-06-19T14:51:09;3.58;;;3.28;;
5052;SDS011;2545;50.892;5.740;2023-06-19T14:53:36;8.48;;;3.67;;
5052;SDS011;2545;50.892;5.740;2023-06-19T14:56:02;3.13;;;2.83;;
5052;SDS011;2545;50.892;5.740;2023-06-19T14:58:27;6.22;;;3.40;;
5052;SDS011;2545;50.892;5.740;2023-06-19T15:00:53;4.18;;;3.50;;
5052;SDS011;2545;50.892;5.740;2023-06-19T15:03:19;4.78;;;3.45;;
5052;SDS011;2545;50.892;5.740;2023-06-19T15:05:44;4.32;;;3.58;;
5052;SDS011;2545;50.892;5.740;2023-06-19T15:08:10;6.40;;;3.55;;
5052;SDS011;2545;50.892;5.740;2023-06-19T15:10:35;6.40;;;3.20;;
5052;SDS011;2545;50.892;5.740;2023-06-19T15:13:01;7.28;;;3.70;;
5052;SDS011;2545;50.892;5.740;2023-06-19T15:15:27;4.20;;;3.13;;